Time;durP1;ratioP1;P1;durP2;ratioP2;P2;SDS_P1;SDS_P2;PMS_P1;PMS_P2;Temp;Humidity;BMP_temperature;BMP_pressure;BME280_temperature;BME280_humidity;BME280_pressure;Samples;Min_cycle;Max_cycle;Signal;HPM_P1;HPM_P2
2021/08/02 00:02:21;;;;;;;;;;;14.50;99.90;;;;;;5095929;28;19935;-81
2021/08/02 00:04:49;;;;;;;;;;;14.50;99.90;;;;;;5095974;28;19935;-80
2021/08/02 00:07:18;;;;;;;;;;;14.40;99.90;;;;;;5096036;28;19924;-81
2021/08/02 00:09:45;;;;;;;;;;;14.50;99.90;;;;;;5095696;28;19924;-81
2021/08/02 00:12:12;;;;;;;;;;;14.40;99.90;;;;;;5095668;28;19939;-81
2021/08/02 00:14:40;;;;;;;;;;;14.50;99.90;;;;;;5095642;28;19935;-81
2021/08/02 00:17:10;;;;;;;;;;;14.40;99.90;;;;;;5094987;28;20192;-81
2021/08/02 00:19:37;;;;;;;;;;;14.40;99.90;;;;;;5095613;28;20357;-80
2021/08/02 00:22:04;;;;;;;;;;;14.40;99.90;;;;;;5095396;28;19924;-80
2021/08/02 00:24:31;;;;;;;;;;;14.40;99.90;;;;;;5095856;28;19924;-80
2021/08/02 00:26:58;;;;;;;;;;;14.50;99.90;;;;;;5095632;28;19935;-81
2021/08/02 00:29:25;;;;;;;;;;;14.50;99.90;;;;;;5095532;28;19924;-80
2021/08/02 00:31:51;;;;;;;;;;;14.50;99.90;;;;;;5095442;28;19924;-80
2021/08/02 00:34:20;;;;;;;;;;;14.50;99.90;;;;;;5095397;28;19935;-80
2021/08/02 00:36:48;;;;;;;;;;;14.50;99.90;;;;;;5095135;28;19924;-81
2021/08/02 00:39:17;;;;;;;;;;;14.50;99.90;;;;;;5095596;28;19924;-80
2021/08/02 00:42:07;;;;;;;;;;;14.40;99.90;;;;;;5095251;28;19924;-81
2021/08/02 00:44:48;;;;;;;;;;;14.40;99.90;;;;;;5095310;28;19935;-80
2021/08/02 00:47:17;;;;;;;;;;;14.50;99.90;;;;;;5095308;28;19947;-80
2021/08/02 00:49:46;;;;;;;;;;;14.40;99.90;;;;;;5095486;28;20023;-79
2021/08/02 00:52:13;;;;;;;;;;;14.40;99.90;;;;;;5095361;28;19924;-80
2021/08/02 00:54:40;;;;;;;;;;;14.40;99.90;;;;;;5095266;28;19935;-80
2021/08/02 00:57:07;;;;;;;;;;;14.40;99.90;;;;;;5095068;28;19924;-81
2021/08/02 00:59:33;;;;;;;;;;;14.30;99.90;;;;;;5095221;28;19934;-79
2021/08/02 01:02:00;;;;;;;;;;;14.30;99.90;;;;;;5095315;28;19924;-81
2021/08/02 01:04:27;;;;;;;;;;;14.30;99.90;;;;;;5095005;28;19934;-81
2021/08/02 01:06:55;;;;;;;;;;;14.30;99.90;;;;;;5095207;28;19924;-81
2021/08/02 01:09:22;;;;;;;;;;;14.30;99.90;;;;;;5094906;28;19928;-80
2021/08/02 01:11:49;;;;;;;;;;;14.30;99.90;;;;;;5095248;28;19924;-79
2021/08/02 01:14:16;;;;;;;;;;;14.30;99.90;;;;;;5095325;28;19924;-81
2021/08/02 01:16:43;;;;;;;;;;;14.30;99.90;;;;;;5095128;28;20249;-80
2021/08/02 01:19:10;;;;;;;;;;;14.30;99.90;;;;;;5095001;28;19924;-81
2021/08/02 01:21:37;;;;;;;;;;;14.30;99.90;;;;;;5094964;28;19934;-80
2021/08/02 01:24:06;;;;;;;;;;;14.20;99.90;;;;;;5095063;28;19934;-81
2021/08/02 01:26:47;;;;;;;;;;;14.20;99.90;;;;;;5095225;28;19928;-80
2021/08/02 01:29:33;;;;;;;;;;;14.20;99.90;;;;;;5096953;28;19934;-81
2021/08/02 01:32:00;;;;;;;;;;;14.20;99.90;;;;;;5094723;28;20368;-80
2021/08/02 01:34:27;;;;;;;;;;;14.20;99.90;;;;;;5094791;28;19942;-80
2021/08/02 01:36:53;;;;;;;;;;;14.20;99.90;;;;;;5094880;28;19928;-81
2021/08/02 01:39:22;;;;;;;;;;;14.20;99.90;;;;;;5094789;28;20392;-80
2021/08/02 01:41:48;;;;;;;;;;;14.20;99.90;;;;;;5098422;28;19932;-80
2021/08/02 01:44:15;;;;;;;;;;;14.20;99.90;;;;;;5098760;28;19935;-80
2021/08/02 01:46:43;;;;;;;;;;;14.20;99.90;;;;;;5098715;28;19928;-80
2021/08/02 01:49:10;;;;;;;;;;;14.10;99.90;;;;;;5098454;28;20349;-79
2021/08/02 01:51:39;;;;;;;;;;;14.20;99.90;;;;;;5098321;28;20364;-81
2021/08/02 01:54:07;;;;;;;;;;;14.10;99.90;;;;;;5098264;28;19924;-80
2021/08/02 01:56:36;;;;;;;;;;;14.10;99.90;;;;;;5098129;28;20353;-79
2021/08/02 01:59:04;;;;;;;;;;;14.10;99.90;;;;;;5098560;28;19924;-80
2021/08/02 02:01:31;;;;;;;;;;;14.10;99.90;;;;;;5098379;28;19924;-80
2021/08/02 02:03:58;;;;;;;;;;;14.10;99.90;;;;;;5098432;28;19924;-80
2021/08/02 02:06:26;;;;;;;;;;;14.10;99.90;;;;;;5098134;28;19973;-80
2021/08/02 02:08:53;;;;;;;;;;;14.10;99.90;;;;;;5098142;28;19932;-79
2021/08/02 02:11:20;;;;;;;;;;;14.10;99.90;;;;;;5098362;28;19924;-80
2021/08/02 02:13:49;;;;;;;;;;;14.00;99.90;;;;;;5097996;28;19924;-80
2021/08/02 02:16:16;;;;;;;;;;;14.00;99.90;;;;;;5097971;28;19971;-80
2021/08/02 02:18:46;;;;;;;;;;;14.00;99.90;;;;;;5097921;28;19928;-79
2021/08/02 02:21:13;;;;;;;;;;;14.00;99.90;;;;;;5097821;28;20358;-80
2021/08/02 02:23:39;;;;;;;;;;;14.00;99.90;;;;;;5097786;28;19924;-81
2021/08/02 02:26:07;;;;;;;;;;;14.00;99.90;;;;;;5098039;28;19962;-80
2021/08/02 02:28:34;;;;;;;;;;;14.00;99.90;;;;;;5097612;28;20345;-80
2021/08/02 02:31:10;;;;;;;;;;;14.00;99.90;;;;;;5097760;28;19935;-83
2021/08/02 02:33:38;;;;;;;;;;;14.00;99.90;;;;;;5097699;28;20336;-81
2021/08/02 02:36:06;;;;;;;;;;;14.00;99.90;;;;;;5097469;28;20357;-80
2021/08/02 02:38:33;;;;;;;;;;;14.00;99.90;;;;;;5097609;28;20388;-82
2021/08/02 02:41:00;;;;;;;;;;;14.00;99.90;;;;;;5097554;28;19935;-79
2021/08/02 02:43:28;;;;;;;;;;;14.00;99.90;;;;;;5097503;28;19931;-83
2021/08/02 02:45:59;;;;;;;;;;;14.00;99.90;;;;;;5097601;28;19924;-83
2021/08/02 02:48:27;;;;;;;;;;;13.90;99.90;;;;;;5097341;28;20255;-82
2021/08/02 02:50:55;;;;;;;;;;;13.90;99.90;;;;;;5096890;28;19924;-83
2021/08/02 02:53:21;;;;;;;;;;;13.90;99.90;;;;;;5096476;28;19928;-83
2021/08/02 02:55:48;;;;;;;;;;;13.90;99.90;;;;;;5097196;28;20384;-82
2021/08/02 02:58:15;;;;;;;;;;;13.90;99.90;;;;;;5096901;28;19924;-76
2021/08/02 03:00:42;;;;;;;;;;;13.90;99.90;;;;;;5096998;28;19924;-77
2021/08/02 03:03:09;;;;;;;;;;;13.90;99.90;;;;;;5097000;28;20372;-79
2021/08/02 03:05:38;;;;;;;;;;;13.80;99.90;;;;;;5096994;28;19925;-80
2021/08/02 03:08:05;;;;;;;;;;;13.80;99.90;;;;;;5097088;28;20333;-79
2021/08/02 03:10:32;;;;;;;;;;;13.80;99.90;;;;;;5097265;28;19934;-76
2021/08/02 03:12:59;;;;;;;;;;;13.80;99.90;;;;;;5096832;28;19924;-77
2021/08/02 03:15:26;;;;;;;;;;;13.80;99.90;;;;;;5096786;28;19930;-77
2021/08/02 03:17:53;;;;;;;;;;;13.80;99.90;;;;;;5096830;28;19928;-77
2021/08/02 03:20:19;;;;;;;;;;;13.80;99.90;;;;;;5096855;28;19924;-76
2021/08/02 03:22:49;;;;;;;;;;;13.80;99.90;;;;;;5096551;28;20281;-77
2021/08/02 03:25:19;;;;;;;;;;;13.80;99.90;;;;;;5096875;28;19924;-77
2021/08/02 03:27:46;;;;;;;;;;;13.80;99.90;;;;;;5096673;28;19928;-76
2021/08/02 03:30:13;;;;;;;;;;;13.80;99.90;;;;;;5096757;28;19924;-77
2021/08/02 03:32:40;;;;;;;;;;;13.80;99.90;;;;;;5096730;28;19938;-77
2021/08/02 03:35:08;;;;;;;;;;;13.80;99.90;;;;;;5096557;28;20261;-78
2021/08/02 03:37:34;;;;;;;;;;;13.80;99.90;;;;;;5096192;28;20388;-77
2021/08/02 03:40:03;;;;;;;;;;;13.80;99.90;;;;;;5096295;28;19924;-79
2021/08/02 03:42:30;;;;;;;;;;;13.70;99.90;;;;;;5096779;28;19931;-77
2021/08/02 03:44:56;;;;;;;;;;;13.70;99.90;;;;;;5096227;28;20274;-76
2021/08/02 03:47:23;;;;;;;;;;;13.70;99.90;;;;;;5096191;28;19928;-76
2021/08/02 03:49:50;;;;;;;;;;;13.70;99.90;;;;;;5096411;28;19928;-78
2021/08/02 03:52:17;;;;;;;;;;;13.70;99.90;;;;;;5096103;28;20257;-76
2021/08/02 03:54:44;;;;;;;;;;;13.70;99.90;;;;;;5096196;28;20333;-78
2021/08/02 03:57:12;;;;;;;;;;;13.70;99.90;;;;;;5096297;28;19924;-77
2021/08/02 03:59:39;;;;;;;;;;;13.70;99.90;;;;;;5095804;28;19989;-78
2021/08/02 04:02:06;;;;;;;;;;;13.60;99.90;;;;;;5096166;28;19934;-76
2021/08/02 04:04:33;;;;;;;;;;;13.60;99.90;;;;;;5095570;28;20353;-76
2021/08/02 04:06:59;;;;;;;;;;;13.60;99.90;;;;;;5095813;28;20277;-77
2021/08/02 04:09:26;;;;;;;;;;;13.50;99.90;;;;;;5095758;28;19934;-77
2021/08/02 04:11:53;;;;;;;;;;;13.50;99.90;;;;;;5095761;28;19940;-77
2021/08/02 04:14:21;;;;;;;;;;;13.50;99.90;;;;;;5095727;28;20376;-77
2021/08/02 04:16:48;;;;;;;;;;;13.50;99.90;;;;;;5095823;28;19932;-78
2021/08/02 04:19:15;;;;;;;;;;;13.40;99.90;;;;;;5095613;28;20265;-78
2021/08/02 04:21:42;;;;;;;;;;;13.50;99.90;;;;;;5095655;28;19924;-77
2021/08/02 04:24:08;;;;;;;;;;;13.50;99.90;;;;;;5095544;28;19924;-78
2021/08/02 04:26:35;;;;;;;;;;;13.50;99.90;;;;;;5095584;28;19939;-76
2021/08/02 04:29:02;;;;;;;;;;;13.50;99.90;;;;;;5095556;28;19924;-77
2021/08/02 04:31:31;;;;;;;;;;;13.50;99.90;;;;;;5095478;28;19924;-76
2021/08/02 04:33:58;;;;;;;;;;;13.50;99.90;;;;;;5095417;28;19924;-77
2021/08/02 04:36:24;;;;;;;;;;;13.40;99.90;;;;;;5095528;28;20272;-76
2021/08/02 04:38:51;;;;;;;;;;;13.40;99.90;;;;;;5095681;28;20329;-76
2021/08/02 04:41:18;;;;;;;;;;;13.40;99.90;;;;;;5095298;28;20285;-77
2021/08/02 04:43:45;;;;;;;;;;;13.40;99.90;;;;;;5095304;28;19934;-76
2021/08/02 04:46:12;;;;;;;;;;;13.40;99.90;;;;;;5095509;28;19931;-77
2021/08/02 04:48:40;;;;;;;;;;;13.40;99.90;;;;;;5095339;28;19924;-77
2021/08/02 04:51:07;;;;;;;;;;;13.40;99.90;;;;;;5095208;28;19924;-78
2021/08/02 04:53:34;;;;;;;;;;;13.40;99.90;;;;;;5095232;28;19924;-78
2021/08/02 04:56:00;;;;;;;;;;;13.30;99.90;;;;;;5095236;28;20253;-77
2021/08/02 04:58:27;;;;;;;;;;;13.30;99.90;;;;;;5094931;28;19924;-77
2021/08/02 05:00:54;;;;;;;;;;;13.30;99.90;;;;;;5095045;28;19924;-77
2021/08/02 05:03:21;;;;;;;;;;;13.30;99.90;;;;;;5095598;28;19935;-77
2021/08/02 05:05:49;;;;;;;;;;;13.30;99.90;;;;;;5095215;28;19924;-77
2021/08/02 05:08:16;;;;;;;;;;;13.30;99.90;;;;;;5095600;28;19928;-77
2021/08/02 05:10:43;;;;;;;;;;;13.40;99.90;;;;;;5095023;28;19931;-77
2021/08/02 05:13:09;;;;;;;;;;;13.40;99.90;;;;;;5095269;28;19928;-78
2021/08/02 05:15:36;;;;;;;;;;;13.50;99.90;;;;;;5097279;28;19928;-77
2021/08/02 05:18:03;;;;;;;;;;;13.50;99.90;;;;;;5099046;28;20356;-77
2021/08/02 05:20:30;;;;;;;;;;;13.50;99.90;;;;;;5099325;28;19923;-77
2021/08/02 05:22:58;;;;;;;;;;;13.60;99.90;;;;;;5098990;28;20395;-77
2021/08/02 05:25:25;;;;;;;;;;;13.60;99.90;;;;;;5098896;28;19928;-77
2021/08/02 05:27:52;;;;;;;;;;;13.60;99.90;;;;;;5098788;28;19939;-78
2021/08/02 05:30:19;;;;;;;;;;;13.60;99.90;;;;;;5099253;28;19924;-76
2021/08/02 05:32:46;;;;;;;;;;;13.60;99.90;;;;;;5098971;28;19928;-77
2021/08/02 05:35:13;;;;;;;;;;;13.60;99.90;;;;;;5098808;28;19924;-77
2021/08/02 05:37:39;;;;;;;;;;;13.60;99.90;;;;;;5098557;28;19924;-76
2021/08/02 05:40:08;;;;;;;;;;;13.60;99.90;;;;;;5098817;28;19983;-76
2021/08/02 05:42:36;;;;;;;;;;;13.60;99.90;;;;;;5098873;28;19934;-77
2021/08/02 05:45:03;;;;;;;;;;;13.60;99.90;;;;;;5098433;28;19924;-78
2021/08/02 05:47:30;;;;;;;;;;;13.60;99.90;;;;;;5098660;28;19989;-77
2021/08/02 05:49:57;;;;;;;;;;;13.70;99.90;;;;;;5098539;28;20268;-76
2021/08/02 05:52:23;;;;;;;;;;;13.70;99.90;;;;;;5098314;28;19946;-77
2021/08/02 05:54:50;;;;;;;;;;;13.70;99.90;;;;;;5098281;28;19924;-76
2021/08/02 05:57:21;;;;;;;;;;;13.80;99.90;;;;;;5098629;28;19924;-76
2021/08/02 05:59:48;;;;;;;;;;;13.90;99.90;;;;;;5098329;28;19924;-77
2021/08/02 06:02:15;;;;;;;;;;;13.90;99.90;;;;;;5098297;28;19930;-77
2021/08/02 06:04:41;;;;;;;;;;;14.00;99.90;;;;;;5098138;28;19924;-76
2021/08/02 06:07:08;;;;;;;;;;;14.00;99.90;;;;;;5098006;28;19924;-78
2021/08/02 06:09:35;;;;;;;;;;;14.10;99.90;;;;;;5098363;28;20330;-77
2021/08/02 06:12:02;;;;;;;;;;;14.10;99.90;;;;;;5098140;28;19935;-78
2021/08/02 06:14:30;;;;;;;;;;;14.20;99.90;;;;;;5098060;28;19924;-77
2021/08/02 06:16:57;;;;;;;;;;;14.20;99.90;;;;;;5097945;28;19939;-78
2021/08/02 06:19:24;;;;;;;;;;;14.30;99.90;;;;;;5097962;28;19924;-78
2021/08/02 06:21:51;;;;;;;;;;;14.30;99.90;;;;;;5097817;28;19932;-78
2021/08/02 06:24:17;;;;;;;;;;;14.40;99.90;;;;;;5098064;28;19924;-77
2021/08/02 06:26:44;;;;;;;;;;;14.40;99.90;;;;;;5097486;28;20369;-77
2021/08/02 06:29:11;;;;;;;;;;;14.50;99.90;;;;;;5097653;28;19924;-76
2021/08/02 06:31:39;;;;;;;;;;;14.50;99.90;;;;;;5097771;28;19924;-77
2021/08/02 06:34:06;;;;;;;;;;;14.60;99.90;;;;;;5097658;28;19942;-77
2021/08/02 06:36:33;;;;;;;;;;;14.60;99.90;;;;;;5097556;28;19934;-77
2021/08/02 06:39:00;;;;;;;;;;;14.60;99.90;;;;;;5097513;28;19924;-77
2021/08/02 06:41:26;;;;;;;;;;;14.70;99.90;;;;;;5097525;28;19942;-77
2021/08/02 06:43:53;;;;;;;;;;;14.70;99.90;;;;;;5097680;28;19939;-77
2021/08/02 06:46:20;;;;;;;;;;;14.80;99.90;;;;;;5097703;28;20345;-77
2021/08/02 06:48:48;;;;;;;;;;;14.80;99.90;;;;;;5097300;28;19927;-77
2021/08/02 06:51:15;;;;;;;;;;;14.90;99.90;;;;;;5097462;28;20288;-76
2021/08/02 06:53:42;;;;;;;;;;;14.90;99.90;;;;;;5097026;28;19924;-76
2021/08/02 06:56:09;;;;;;;;;;;15.00;99.90;;;;;;5097010;28;19924;-76
2021/08/02 06:58:36;;;;;;;;;;;15.10;99.90;;;;;;5097120;28;19981;-76
2021/08/02 07:01:02;;;;;;;;;;;15.10;99.90;;;;;;5097154;28;19924;-76
2021/08/02 07:03:29;;;;;;;;;;;15.10;99.90;;;;;;5097236;28;19924;-77
2021/08/02 07:05:57;;;;;;;;;;;15.10;99.90;;;;;;5097243;28;19924;-76
2021/08/02 07:08:24;;;;;;;;;;;15.20;99.90;;;;;;5097173;28;19924;-77
2021/08/02 07:10:51;;;;;;;;;;;15.20;99.90;;;;;;5096994;28;19924;-77
2021/08/02 07:13:18;;;;;;;;;;;15.20;99.90;;;;;;5097002;28;19954;-76
2021/08/02 07:15:45;;;;;;;;;;;15.30;99.90;;;;;;5096807;28;19924;-76
2021/08/02 07:18:11;;;;;;;;;;;15.40;99.90;;;;;;5096806;28;19924;-76
2021/08/02 07:20:39;;;;;;;;;;;15.40;99.90;;;;;;5096937;28;19925;-76
2021/08/02 07:23:07;;;;;;;;;;;15.40;99.90;;;;;;5096680;28;20415;-77
2021/08/02 07:25:34;;;;;;;;;;;15.50;99.90;;;;;;5096584;28;19924;-76
2021/08/02 07:28:01;;;;;;;;;;;15.60;99.90;;;;;;5096666;28;19935;-76
2021/08/02 07:30:28;;;;;;;;;;;15.70;99.90;;;;;;5096578;28;20272;-76
2021/08/02 07:32:55;;;;;;;;;;;15.80;99.90;;;;;;5096444;28;19924;-76
2021/08/02 07:35:22;;;;;;;;;;;15.80;99.90;;;;;;5096383;28;19930;-76
2021/08/02 07:37:48;;;;;;;;;;;15.90;99.90;;;;;;5095593;28;20349;-76
2021/08/02 07:40:17;;;;;;;;;;;16.00;99.90;;;;;;5096505;28;19934;-76
2021/08/02 07:42:43;;;;;;;;;;;16.00;99.90;;;;;;5096204;28;20277;-76
2021/08/02 07:45:11;;;;;;;;;;;16.10;99.90;;;;;;5096482;28;19939;-76
2021/08/02 07:47:37;;;;;;;;;;;16.00;99.90;;;;;;5096374;28;19924;-76
2021/08/02 07:50:05;;;;;;;;;;;16.00;99.90;;;;;;5096078;28;19924;-76
2021/08/02 07:52:32;;;;;;;;;;;16.00;99.90;;;;;;5096357;28;19943;-76
2021/08/02 07:54:58;;;;;;;;;;;16.10;99.90;;;;;;5096013;28;19924;-76
2021/08/02 07:57:27;;;;;;;;;;;16.10;99.90;;;;;;5095976;28;20350;-76
2021/08/02 07:59:54;;;;;;;;;;;16.20;99.90;;;;;;5096268;28;19924;-76
2021/08/02 08:02:21;;;;;;;;;;;16.20;99.90;;;;;;5096005;28;19924;-76
2021/08/02 08:04:48;;;;;;;;;;;16.20;99.90;;;;;;5095982;28;20056;-76
2021/08/02 08:07:15;;;;;;;;;;;16.30;99.90;;;;;;5096151;28;19924;-76
2021/08/02 08:09:42;;;;;;;;;;;16.40;99.90;;;;;;5095755;28;19931;-76
2021/08/02 08:12:08;;;;;;;;;;;16.50;99.90;;;;;;5095874;28;19924;-76
2021/08/02 08:14:37;;;;;;;;;;;16.40;99.90;;;;;;5095642;28;19934;-76
2021/08/02 08:17:04;;;;;;;;;;;16.40;99.90;;;;;;5095764;28;19924;-76
2021/08/02 08:19:31;;;;;;;;;;;16.40;99.90;;;;;;5095663;28;19924;-76
2021/08/02 08:21:58;;;;;;;;;;;16.50;99.90;;;;;;5095955;28;19936;-76
2021/08/02 08:24:25;;;;;;;;;;;16.50;99.90;;;;;;5095672;28;19935;-76
2021/08/02 08:26:51;;;;;;;;;;;16.60;99.90;;;;;;5095582;28;20261;-76
2021/08/02 08:29:18;;;;;;;;;;;16.60;99.90;;;;;;5095545;28;19925;-76
2021/08/02 08:31:46;;;;;;;;;;;16.60;99.90;;;;;;5095645;28;19924;-76
2021/08/02 08:34:13;;;;;;;;;;;16.50;99.90;;;;;;5095418;28;19934;-76
2021/08/02 08:36:40;;;;;;;;;;;16.60;99.90;;;;;;5095472;28;20001;-76
2021/08/02 08:39:07;;;;;;;;;;;16.60;99.90;;;;;;5095348;28;19924;-76
2021/08/02 08:41:34;;;;;;;;;;;16.60;99.90;;;;;;5095412;28;19924;-76
2021/08/02 08:44:01;;;;;;;;;;;16.70;99.90;;;;;;5095338;28;19928;-76
2021/08/02 08:46:27;;;;;;;;;;;16.70;99.90;;;;;;5095528;28;19928;-76
2021/08/02 08:48:56;;;;;;;;;;;16.80;99.90;;;;;;5095443;28;20269;-76
2021/08/02 08:51:22;;;;;;;;;;;16.90;99.90;;;;;;5095385;28;19935;-76
2021/08/02 08:53:52;;;;;;;;;;;17.00;99.90;;;;;;5095096;28;19950;-76
2021/08/02 08:56:19;;;;;;;;;;;17.00;99.90;;;;;;5095095;28;19985;-76
2021/08/02 08:58:46;;;;;;;;;;;17.00;99.90;;;;;;5095153;28;19932;-76
2021/08/02 09:01:13;;;;;;;;;;;17.00;99.90;;;;;;5095333;28;19924;-76
2021/08/02 09:03:50;;;;;;;;;;;17.00;99.90;;;;;;5095312;28;20291;-76
2021/08/02 09:06:19;;;;;;;;;;;17.10;99.90;;;;;;5095248;28;19928;-76
2021/08/02 09:08:45;;;;;;;;;;;17.20;99.90;;;;;;5095170;28;19928;-76
2021/08/02 09:11:16;;;;;;;;;;;17.30;99.90;;;;;;5095044;28;19938;-76
2021/08/02 09:13:44;;;;;;;;;;;17.40;99.90;;;;;;5094971;28;20349;-76
2021/08/02 09:16:11;;;;;;;;;;;17.50;99.90;;;;;;5094960;28;19937;-76
2021/08/02 09:18:38;;;;;;;;;;;17.60;99.90;;;;;;5094905;28;19961;-76
2021/08/02 09:21:06;;;;;;;;;;;17.60;99.90;;;;;;5094984;28;19962;-76
2021/08/02 09:23:35;;;;;;;;;;;17.70;99.90;;;;;;5094960;28;19924;-76
2021/08/02 09:26:02;;;;;;;;;;;17.70;99.90;;;;;;5095205;28;19924;-76
2021/08/02 09:28:29;;;;;;;;;;;17.80;99.90;;;;;;5094826;28;19932;-76
2021/08/02 09:30:56;;;;;;;;;;;17.90;99.90;;;;;;5094833;28;20356;-76
2021/08/02 09:33:24;;;;;;;;;;;17.90;99.90;;;;;;5095164;28;20056;-75
2021/08/02 09:36:05;;;;;;;;;;;17.80;99.90;;;;;;5095117;28;19924;-76
2021/08/02 09:38:35;;;;;;;;;;;17.90;99.90;;;;;;5094823;28;20218;-76
2021/08/02 09:41:02;;;;;;;;;;;17.90;99.90;;;;;;5095084;28;19935;-76
2021/08/02 09:43:34;;;;;;;;;;;17.90;99.90;;;;;;5094643;28;20303;-76
2021/08/02 09:46:03;;;;;;;;;;;18.00;99.90;;;;;;5095015;28;20036;-76
2021/08/02 09:48:37;;;;;;;;;;;18.00;99.90;;;;;;5094718;28;19924;-75
2021/08/02 09:51:09;;;;;;;;;;;18.00;99.90;;;;;;5094885;28;19940;-76
2021/08/02 09:53:38;;;;;;;;;;;18.00;99.90;;;;;;5094337;28;19924;-76
2021/08/02 09:56:05;;;;;;;;;;;18.00;99.90;;;;;;5094778;28;19997;-76
2021/08/02 09:58:32;;;;;;;;;;;18.00;99.90;;;;;;5094582;28;20337;-76
2021/08/02 10:01:00;;;;;;;;;;;17.90;99.90;;;;;;5095448;28;19939;-76
2021/08/02 10:03:28;;;;;;;;;;;17.90;99.90;;;;;;5098157;28;19923;-76
2021/08/02 10:05:55;;;;;;;;;;;17.90;99.90;;;;;;5097724;28;19924;-76
2021/08/02 10:08:26;;;;;;;;;;;18.00;99.90;;;;;;5098321;28;20010;-76
2021/08/02 10:11:06;;;;;;;;;;;18.10;99.90;;;;;;5097830;28;20018;-76
2021/08/02 10:13:35;;;;;;;;;;;18.20;99.90;;;;;;5098059;28;19924;-75
2021/08/02 10:16:04;;;;;;;;;;;18.40;99.90;;;;;;5097969;28;19939;-76
2021/08/02 10:18:34;;;;;;;;;;;18.50;99.90;;;;;;5097765;28;19924;-75
2021/08/02 10:21:07;;;;;;;;;;;18.60;99.90;;;;;;5097884;28;20357;-75
2021/08/02 10:23:38;;;;;;;;;;;18.70;99.90;;;;;;5098073;28;19923;-76
2021/08/02 10:26:19;;;;;;;;;;;18.60;99.90;;;;;;5097757;28;20369;-76
2021/08/02 10:28:56;;;;;;;;;;;18.40;99.90;;;;;;5097832;28;19935;-76
2021/08/02 10:31:26;;;;;;;;;;;18.30;99.90;;;;;;5098040;28;19928;-76
2021/08/02 10:33:54;;;;;;;;;;;18.40;99.90;;;;;;5097973;28;19938;-76
2021/08/02 10:36:22;;;;;;;;;;;18.40;99.90;;;;;;5097870;28;19923;-76
2021/08/02 10:38:51;;;;;;;;;;;18.50;99.90;;;;;;5097531;28;19924;-76
2021/08/02 10:41:26;;;;;;;;;;;18.50;99.90;;;;;;5097424;28;19924;-76
2021/08/02 10:43:54;;;;;;;;;;;18.60;99.90;;;;;;5097400;28;19935;-76
2021/08/02 10:46:23;;;;;;;;;;;18.60;99.90;;;;;;5097177;28;19923;-76
2021/08/02 10:48:52;;;;;;;;;;;18.60;99.90;;;;;;5097528;28;20269;-76
2021/08/02 10:51:20;;;;;;;;;;;18.70;99.90;;;;;;5097362;28;19928;-76
2021/08/02 10:53:56;;;;;;;;;;;18.70;99.90;;;;;;5097155;28;19924;-78
2021/08/02 10:56:26;;;;;;;;;;;18.80;99.90;;;;;;5097482;28;20327;-80
2021/08/02 10:58:56;;;;;;;;;;;18.90;99.90;;;;;;5097331;28;19928;-81
2021/08/02 11:01:26;;;;;;;;;;;18.90;99.90;;;;;;5097193;28;19961;-90
2021/08/02 11:03:54;;;;;;;;;;;18.80;99.90;;;;;;5097279;28;19927;-79
2021/08/02 11:06:22;;;;;;;;;;;18.80;99.90;;;;;;5096943;28;19931;-78
2021/08/02 11:08:49;;;;;;;;;;;18.80;99.90;;;;;;5096936;28;19924;-75
2021/08/02 11:11:21;;;;;;;;;;;18.70;99.90;;;;;;5097116;28;19924;-75
2021/08/02 11:13:50;;;;;;;;;;;18.70;99.90;;;;;;5095831;28;19924;-75
2021/08/02 11:16:17;;;;;;;;;;;18.60;99.90;;;;;;5096672;28;19935;-77
2021/08/02 11:18:44;;;;;;;;;;;18.70;99.90;;;;;;5096403;28;19939;-78
2021/08/02 11:21:21;;;;;;;;;;;18.60;99.90;;;;;;5096514;28;19925;-77
2021/08/02 11:23:48;;;;;;;;;;;18.50;99.90;;;;;;5096766;28;19924;-77
2021/08/02 11:26:15;;;;;;;;;;;18.50;99.90;;;;;;5096537;28;19924;-78
2021/08/02 11:28:42;;;;;;;;;;;18.50;99.90;;;;;;5096816;28;20299;-78
2021/08/02 11:31:11;;;;;;;;;;;18.30;99.90;;;;;;5096670;28;19928;-78
2021/08/02 11:33:38;;;;;;;;;;;18.30;99.90;;;;;;5096413;28;19924;-78
2021/08/02 11:36:05;;;;;;;;;;;18.20;99.90;;;;;;5096602;28;19973;-78
2021/08/02 11:38:35;;;;;;;;;;;18.00;99.90;;;;;;5096515;28;19924;-78
2021/08/02 11:41:02;;;;;;;;;;;17.90;99.90;;;;;;5096423;28;19924;-78
2021/08/02 11:43:29;;;;;;;;;;;17.80;99.90;;;;;;5095479;28;20391;-78
2021/08/02 11:45:56;;;;;;;;;;;17.80;99.90;;;;;;5096219;28;19924;-77
2021/08/02 11:48:24;;;;;;;;;;;17.80;99.90;;;;;;5096231;28;19927;-77
2021/08/02 11:50:51;;;;;;;;;;;17.70;99.90;;;;;;5096309;28;19924;-77
2021/08/02 11:53:18;;;;;;;;;;;17.70;99.90;;;;;;5095940;28;20345;-78
2021/08/02 11:55:50;;;;;;;;;;;17.80;99.90;;;;;;5096039;28;19935;-77
2021/08/02 11:58:16;;;;;;;;;;;17.70;99.90;;;;;;5096044;28;19975;-78
2021/08/02 12:00:43;;;;;;;;;;;17.70;99.90;;;;;;5096111;28;19924;-78
2021/08/02 12:03:11;;;;;;;;;;;17.80;99.90;;;;;;5095972;28;19928;-77
2021/08/02 12:05:40;;;;;;;;;;;17.80;99.90;;;;;;5096055;28;19924;-77
2021/08/02 12:08:10;;;;;;;;;;;17.90;99.90;;;;;;5095907;28;19931;-77
2021/08/02 12:10:37;;;;;;;;;;;18.00;99.90;;;;;;5095881;28;19924;-77
2021/08/02 12:13:05;;;;;;;;;;;18.10;99.90;;;;;;5095788;28;19924;-77
2021/08/02 12:15:32;;;;;;;;;;;18.30;99.90;;;;;;5095966;28;20276;-78
2021/08/02 12:17:59;;;;;;;;;;;18.40;99.90;;;;;;5095644;28;19924;-78
2021/08/02 12:20:29;;;;;;;;;;;18.40;99.90;;;;;;5095760;28;19932;-76
2021/08/02 12:22:57;;;;;;;;;;;18.50;99.90;;;;;;5095731;28;19943;-78
2021/08/02 12:25:33;;;;;;;;;;;18.50;99.90;;;;;;5095403;28;19925;-77
2021/08/02 12:28:00;;;;;;;;;;;18.50;99.90;;;;;;5095592;28;19935;-77
2021/08/02 12:30:27;;;;;;;;;;;18.60;99.90;;;;;;5095712;28;19959;-77
2021/08/02 12:32:54;;;;;;;;;;;18.50;99.90;;;;;;5095813;28;19924;-77
2021/08/02 12:35:21;;;;;;;;;;;18.50;99.90;;;;;;5095393;28;19928;-77
2021/08/02 12:37:48;;;;;;;;;;;18.50;99.90;;;;;;5095404;28;19935;-77
2021/08/02 12:40:16;;;;;;;;;;;18.50;99.90;;;;;;5095211;28;19950;-77
2021/08/02 12:42:44;;;;;;;;;;;18.60;99.90;;;;;;5095357;28;19924;-77
2021/08/02 12:45:11;;;;;;;;;;;18.60;99.90;;;;;;5095362;28;19928;-77
2021/08/02 12:47:38;;;;;;;;;;;18.60;99.90;;;;;;5095507;28;19924;-77
2021/08/02 12:50:05;;;;;;;;;;;18.70;99.90;;;;;;5095448;28;20242;-77
2021/08/02 12:52:32;;;;;;;;;;;18.70;99.90;;;;;;5095287;28;19924;-77
2021/08/02 12:54:59;;;;;;;;;;;18.60;99.90;;;;;;5095357;28;19924;-77
2021/08/02 12:57:28;;;;;;;;;;;18.60;99.90;;;;;;5095399;28;20018;-76
2021/08/02 12:59:57;;;;;;;;;;;18.60;99.90;;;;;;5095059;28;19982;-76
2021/08/02 13:02:25;;;;;;;;;;;18.70;99.90;;;;;;5095118;28;20358;-77
2021/08/02 13:04:52;;;;;;;;;;;18.70;99.90;;;;;;5095189;28;20311;-77
2021/08/02 13:07:18;;;;;;;;;;;18.70;99.90;;;;;;5095021;28;19924;-77
2021/08/02 13:09:46;;;;;;;;;;;18.80;99.90;;;;;;5095137;28;20369;-77
2021/08/02 13:12:13;;;;;;;;;;;18.80;99.90;;;;;;5095267;28;19924;-77
2021/08/02 13:14:41;;;;;;;;;;;18.90;99.90;;;;;;5095288;28;20260;-77
2021/08/02 13:17:08;;;;;;;;;;;18.90;99.90;;;;;;5094988;28;19924;-77
2021/08/02 13:19:38;;;;;;;;;;;18.90;99.90;;;;;;5095052;28;19924;-77
2021/08/02 13:22:05;;;;;;;;;;;18.80;99.90;;;;;;5094871;28;20438;-77
2021/08/02 13:27:16;;;;;;;;;;;18.70;99.90;;;;;;5095194;28;20422;-77
2021/08/02 13:29:44;;;;;;;;;;;18.70;99.90;;;;;;5095137;28;19934;-77
2021/08/02 13:32:11;;;;;;;;;;;18.70;99.90;;;;;;5095105;28;20268;-77
2021/08/02 13:34:38;;;;;;;;;;;18.70;99.90;;;;;;5094893;28;19928;-77
2021/08/02 13:37:05;;;;;;;;;;;18.70;99.90;;;;;;5097818;28;19924;-77
2021/08/02 13:39:32;;;;;;;;;;;18.70;99.90;;;;;;5098784;28;19928;-77
2021/08/02 13:41:59;;;;;;;;;;;18.70;99.90;;;;;;5098793;28;19924;-77
2021/08/02 13:44:26;;;;;;;;;;;18.70;99.90;;;;;;5098915;28;19931;-77
2021/08/02 13:46:54;;;;;;;;;;;18.70;99.90;;;;;;5098723;28;19935;-77
2021/08/02 13:49:21;;;;;;;;;;;18.70;99.90;;;;;;5098617;28;19936;-76
2021/08/02 13:51:48;;;;;;;;;;;18.80;99.90;;;;;;5098620;28;20261;-77
2021/08/02 13:54:15;;;;;;;;;;;18.80;99.90;;;;;;5098468;28;19925;-77
2021/08/02 13:56:41;;;;;;;;;;;18.80;99.90;;;;;;5098349;28;20338;-77
2021/08/02 13:59:08;;;;;;;;;;;18.80;99.90;;;;;;5098340;28;19935;-76
2021/08/02 14:01:35;;;;;;;;;;;18.90;99.90;;;;;;5098211;28;20337;-77
2021/08/02 14:04:04;;;;;;;;;;;18.90;99.90;;;;;;5098190;28;19934;-76
2021/08/02 14:06:32;;;;;;;;;;;18.90;99.90;;;;;;5098481;28;19928;-76
2021/08/02 14:09:00;;;;;;;;;;;18.90;99.90;;;;;;5098341;28;19924;-76
2021/08/02 14:11:28;;;;;;;;;;;18.90;99.90;;;;;;5098091;28;19924;-75
2021/08/02 14:13:57;;;;;;;;;;;18.90;99.90;;;;;;5098251;28;19924;-75
2021/08/02 14:16:29;;;;;;;;;;;18.90;99.90;;;;;;5098033;28;19924;-75
2021/08/02 14:19:00;;;;;;;;;;;18.90;99.90;;;;;;5098088;28;20002;-76
2021/08/02 14:21:28;;;;;;;;;;;19.00;99.90;;;;;;5097804;28;19935;-75
2021/08/02 14:23:56;;;;;;;;;;;19.00;99.90;;;;;;5097962;28;19924;-75